Hong Kong, Hong Kong

12:35 PM HKT on August 25, 2016 (GMT +0800)
Tai O | | Change Station

Elev 20 ft 22.25 °N, 113.87 °E | Updated 34 seconds ago

Partly Cloudy
Partly Cloudy
86.9 °F
Feels Like 103 °F
N
4.0
Wind Variable Wind from NW
Gusts 6.0 mph

Today
High -- | Low -- °F
--% Chance of Precip.
Yesterday
High -- | Low -- °F
Precip. -- in
Pressure 29.65 in
Visibility 6.2 miles
Clouds Few 3000 ft
Heat Index 103 °F
Dew Point 80 °F
Humidity 80%
Rainfall 0.01 in
Snow Depth Not available.
6:05 AM 6:47 PM
Waning Gibbous, 50% visible
METAR VHHH 250430Z 36006KT 9999 FEW030 34/25 Q1004 NOSIG
Pressure 29.65 in
Visibility 6.2 miles
Clouds Few 3000 ft
Heat Index 103 °F
Dew Point 80 °F
Humidity 80%
Rainfall 0.01 in
Snow Depth Not available.
6:05 AM 6:47 PM
Waning Gibbous, 50% visible
METAR VHHH 250430Z 36006KT 9999 FEW030 34/25 Q1004 NOSIG

10-Day Weather Forecast

No radar image for this location.
×

Almanac

Astronomy

Aug. 25, 2016 Rise Set
Actual Time
Civil Twilight
Nautical Twilight
Astronomical Twilight
Moon
Length of Visible Light
Length of Day
Tomorrow will be .
, % of the Moon is Illuminated

Today's Extremes

Country Highs Country Lows

Community

WunderPhotos

Upload Photos

1,934,796 photos uploaded!

WunderBlog® & News

Nearby

Air Quality

  Air Quality AQ Index Pollutant
Not available.

Snow Depth

Station Depth Elevation

Earthquake Activity

City Distance Mag. Time & Date
Minimum magnitude displayed is 2.5.

Coastal Water Temperatures

Place Temperature

Stations

Nearby Weather Stations

Station Location Temp. Windchill Dew Point Humidity Wind Precip. Elev Updated Type